EAG0758 SBCZ-SBPV
Flight info
| Callsign | EAG0758 |
|---|---|
| Flight time | N/A |
| Altitude | 35000 |
| Route | NEPIN DCT OSATU DCT BOGUR |
| Aircraft | A20N/L-L/2000 |
Departure
| Time | N/A |
|---|---|
| Airport | Cruzeiro do Sul Airport (SBCZ) |
Arrival
| Time | 2026-04-24 19:05 |
|---|---|
| Airport | Governador Jorge Teixeira de Oliveira International Airport (SBPV) |
| Time | Latitude | Longitude | Altitude | Speed | Heading |
|---|---|---|---|---|---|
| 2026-04-24 17:10 | -7.59723 | -72.77364 | 646 ft | 0 kts | 3° |
| 2026-04-24 18:54 | -8.92083 | -64.12320 | 4497 ft | 213 kts | 90° |
| 2026-04-24 18:55 | -8.92212 | -64.09374 | 4031 ft | 206 kts | 90° |
| 2026-04-24 18:55 | -8.92274 | -64.07946 | 3804 ft | 202 kts | 90° |
| 2026-04-24 18:55 | -8.92336 | -64.06555 | 3676 ft | 191 kts | 90° |
| 2026-04-24 18:56 | -8.92393 | -64.05241 | 3411 ft | 187 kts | 90° |
| 2026-04-24 18:56 | -8.92449 | -64.03936 | 3182 ft | 180 kts | 90° |
| 2026-04-24 18:56 | -8.92503 | -64.02703 | 3028 ft | 169 kts | 90° |
| 2026-04-24 18:56 | -8.92553 | -64.01570 | 2994 ft | 153 kts | 90° |
| 2026-04-24 18:57 | -8.92599 | -64.00510 | 2997 ft | 152 kts | 89° |
| 2026-04-24 18:57 | -8.92642 | -63.99435 | 2982 ft | 151 kts | 87° |
| 2026-04-24 18:57 | -8.92550 | -63.98377 | 2966 ft | 150 kts | 75° |
| 2026-04-24 18:57 | -8.92236 | -63.97386 | 2961 ft | 148 kts | 65° |
| 2026-04-24 18:58 | -8.91826 | -63.96418 | 2959 ft | 148 kts | 64° |
| 2026-04-24 18:58 | -8.91412 | -63.95470 | 2958 ft | 148 kts | 64° |
| 2026-04-24 18:58 | -8.90995 | -63.94511 | 2984 ft | 146 kts | 64° |
| 2026-04-24 18:58 | -8.90602 | -63.93602 | 2950 ft | 137 kts | 64° |
| 2026-04-24 18:59 | -8.90226 | -63.92729 | 2953 ft | 136 kts | 64° |
| 2026-04-24 18:59 | -8.89845 | -63.91845 | 2955 ft | 136 kts | 64° |
| 2026-04-24 18:59 | -8.89470 | -63.90974 | 2956 ft | 136 kts | 64° |
| 2026-04-24 18:59 | -8.89038 | -63.90124 | 2938 ft | 134 kts | 50° |
| 2026-04-24 19:00 | -8.88304 | -63.89570 | 2911 ft | 134 kts | 18° |
| 2026-04-24 19:00 | -8.87392 | -63.89405 | 2902 ft | 134 kts | 5° |
| 2026-04-24 19:00 | -8.86459 | -63.89380 | 2800 ft | 134 kts | 0° |
| 2026-04-24 19:00 | -8.85527 | -63.89399 | 2713 ft | 134 kts | 359° |
| 2026-04-24 19:01 | -8.84598 | -63.89436 | 2630 ft | 133 kts | 358° |
| 2026-04-24 19:01 | -8.83681 | -63.89482 | 2562 ft | 134 kts | 358° |
| 2026-04-24 19:01 | -8.82743 | -63.89535 | 2371 ft | 133 kts | 358° |
| 2026-04-24 19:01 | -8.81831 | -63.89588 | 2201 ft | 133 kts | 357° |
| 2026-04-24 19:02 | -8.80907 | -63.89643 | 2024 ft | 132 kts | 357° |
| 2026-04-24 19:02 | -8.79993 | -63.89697 | 1849 ft | 132 kts | 357° |
| 2026-04-24 19:02 | -8.79076 | -63.89751 | 1675 ft | 131 kts | 357° |
| 2026-04-24 19:02 | -8.78154 | -63.89807 | 1497 ft | 131 kts | 357° |
| 2026-04-24 19:03 | -8.77243 | -63.89861 | 1322 ft | 131 kts | 357° |
| 2026-04-24 19:03 | -8.76339 | -63.89914 | 1151 ft | 130 kts | 357° |
| 2026-04-24 19:03 | -8.75434 | -63.89968 | 981 ft | 130 kts | 357° |
| 2026-04-24 19:03 | -8.74532 | -63.90022 | 805 ft | 130 kts | 357° |
| 2026-04-24 19:04 | -8.73635 | -63.90074 | 639 ft | 130 kts | 357° |
| 2026-04-24 19:04 | -8.72728 | -63.90135 | 440 ft | 129 kts | 357° |
| 2026-04-24 19:04 | -8.71835 | -63.90178 | 304 ft | 127 kts | 356° |
| 2026-04-24 19:04 | -8.71079 | -63.90225 | 300 ft | 84 kts | 356° |
| 2026-04-24 19:05 | -8.70667 | -63.90250 | 300 ft | 35 kts | 357° |
| 2026-04-24 19:05 | -8.70443 | -63.90261 | 300 ft | 28 kts | 357° |
| 2026-04-24 19:05 | -8.70316 | -63.90215 | 300 ft | 19 kts | 76° |
| 2026-04-24 19:05 | -8.70355 | -63.90129 | 300 ft | 14 kts | 175° |
| 2026-04-24 19:06 | -8.70459 | -63.90118 | 300 ft | 15 kts | 175° |
| 2026-04-24 19:06 | -8.70565 | -63.90110 | 300 ft | 15 kts | 175° |
| 2026-04-24 19:06 | -8.70674 | -63.90104 | 300 ft | 15 kts | 178° |
| 2026-04-24 19:06 | -8.70786 | -63.90100 | 300 ft | 16 kts | 178° |
| 2026-04-24 19:07 | -8.70898 | -63.90095 | 300 ft | 16 kts | 177° |
| 2026-04-24 19:07 | -8.71011 | -63.90087 | 300 ft | 16 kts | 176° |
| 2026-04-24 19:07 | -8.71126 | -63.90079 | 300 ft | 16 kts | 176° |
| 2026-04-24 19:07 | -8.71241 | -63.90071 | 300 ft | 16 kts | 176° |
| 2026-04-24 19:08 | -8.71358 | -63.90064 | 300 ft | 16 kts | 177° |
| 2026-04-24 19:08 | -8.71464 | -63.90043 | 300 ft | 14 kts | 129° |
| 2026-04-24 19:08 | -8.71468 | -63.89950 | 300 ft | 7 kts | 87° |
| 2026-04-24 19:08 | -8.71467 | -63.89935 | 300 ft | 0 kts | 88° |
| 2026-04-24 19:09 | -8.71467 | -63.89934 | 300 ft | 0 kts | 87° |